Dickinson's Hourly Summary for Saturday, July 7, 2018
Hour Temp
(f)
RH
(%)
Solar Rad.
(MJ/m2)
Rainfall
(in)
Wind
(mph)
7/7/2018 12:00 AM 78 85 0 0 0
7/7/2018 1:00 AM 79 85 0 0 0
7/7/2018 2:00 AM 78 86 0 0 0
7/7/2018 3:00 AM 77 91 0 0 0
7/7/2018 4:00 AM 76 94 0 0 0
7/7/2018 5:00 AM 76 93 0 0 0
7/7/2018 6:00 AM 75 93 0 0 0
7/7/2018 7:00 AM 75 94 0.05 0 0
7/7/2018 8:00 AM 77 90 0.27 0 2.02
7/7/2018 9:00 AM 80 84 0.72 0 4.45
7/7/2018 10:00 AM 81 78 0.98 0 5.47
7/7/2018 11:00 AM 83 69 1.9 0 4.43
7/7/2018 12:00 PM 85 64 2.6 0 3.91
7/7/2018 1:00 PM 85 66 2.11 0 4.27
7/7/2018 2:00 PM 80 69 0.51 0 2.36
7/7/2018 3:00 PM 80 74 1.43 0 1.73
7/7/2018 4:00 PM 85 61 2.91 0 3.12
7/7/2018 5:00 PM 86 61 2.13 0 3.79
7/7/2018 6:00 PM 86 62 1.21 0 3.75
7/7/2018 7:00 PM 84 63 0.25 0 1.74
7/7/2018 8:00 PM 82 70 0.07 0 0.8
7/7/2018 9:00 PM 81 75 0.01 0 0.22
7/7/2018 10:00 PM 80 78 0 0 0
7/7/2018 11:00 PM 79 84 0 0 0
Data Summary 80 77 17.15 0.00 1.75